createdAt,value
2018-04-25T00:00:39.648Z,0
2018-04-25T00:01:35.863Z,0
2018-04-25T00:02:36.096Z,0
2018-04-25T00:03:35.630Z,0
2018-04-25T00:04:35.851Z,0
2018-04-25T00:05:35.862Z,0
2018-04-25T00:06:35.842Z,0
2018-04-25T00:07:35.844Z,0
2018-04-25T00:08:36.086Z,0
2018-04-25T00:09:36.119Z,0
2018-04-25T00:10:36.123Z,0
2018-04-25T00:11:35.841Z,0
2018-04-25T00:12:35.850Z,0
2018-04-25T00:13:36.095Z,0
2018-04-25T00:14:36.101Z,0
2018-04-25T00:15:35.834Z,0
2018-04-25T00:16:36.080Z,0
2018-04-25T00:17:36.079Z,0
2018-04-25T00:18:35.823Z,0
2018-04-25T00:19:36.064Z,0
2018-04-25T00:20:35.891Z,0
2018-04-25T00:21:35.842Z,0
2018-04-25T00:22:36.081Z,0
2018-04-25T00:23:36.085Z,0
2018-04-25T00:24:35.919Z,0
2018-04-25T00:25:36.103Z,0
2018-04-25T00:26:36.079Z,0
2018-04-25T00:27:36.054Z,0
2018-04-25T00:28:35.553Z,0
2018-04-25T00:29:35.814Z,0
2018-04-25T00:30:38.786Z,0
2018-04-25T00:31:36.060Z,0
2018-04-25T00:32:36.060Z,0
2018-04-25T00:33:35.884Z,0
2018-04-25T00:34:35.819Z,0
2018-04-25T00:35:36.086Z,0
2018-04-25T00:36:36.060Z,0
2018-04-25T00:37:35.800Z,0
2018-04-25T00:38:36.041Z,0
2018-04-25T00:39:35.798Z,0
2018-04-25T00:40:36.168Z,0
2018-04-25T00:41:36.043Z,0
2018-04-25T00:42:36.036Z,0
2018-04-25T00:43:35.803Z,0
2018-04-25T00:44:35.646Z,0
2018-04-25T00:45:36.129Z,0
2018-04-25T00:46:35.801Z,0
2018-04-25T00:47:35.784Z,0
2018-04-25T00:48:35.789Z,0
2018-04-25T00:49:36.019Z,0
2018-04-25T00:50:35.839Z,0
2018-04-25T00:51:35.767Z,0
2018-04-25T00:52:36.020Z,0
2018-04-25T00:53:36.020Z,0
2018-04-25T00:54:35.767Z,0
2018-04-25T00:55:35.600Z,0
2018-04-25T00:56:35.759Z,0
2018-04-25T00:57:35.769Z,0
2018-04-25T00:58:35.758Z,0
2018-04-25T00:59:35.764Z,0
2018-04-25T01:00:36.080Z,0
2018-04-25T01:01:37.308Z,0
2018-04-25T01:02:35.768Z,0
2018-04-25T01:03:36.000Z,0
2018-04-25T01:04:36.000Z,0
2018-04-25T01:05:35.562Z,0
2018-04-25T01:06:36.003Z,0
2018-04-25T01:07:35.239Z,0
2018-04-25T01:08:35.751Z,0
2018-04-25T01:09:35.744Z,0
2018-04-25T01:10:36.015Z,0
2018-04-25T01:11:35.258Z,0
2018-04-25T01:12:35.731Z,0
2018-04-25T01:13:35.729Z,0
2018-04-25T01:14:35.728Z,0
2018-04-25T01:15:35.788Z,0
2018-04-25T01:16:35.976Z,0
2018-04-25T01:17:35.487Z,0
2018-04-25T01:18:35.990Z,0
2018-04-25T01:19:35.972Z,0
2018-04-25T01:20:35.786Z,0
2018-04-25T01:21:35.980Z,0
2018-04-25T01:22:35.971Z,0
2018-04-25T01:23:35.975Z,0
2018-04-25T01:24:35.706Z,0
2018-04-25T01:25:35.957Z,0
2018-04-25T01:26:35.729Z,0
2018-04-25T01:27:35.729Z,0
2018-04-25T01:28:35.956Z,0
2018-04-25T01:29:35.459Z,0
2018-04-25T01:30:35.469Z,0
2018-04-25T01:31:36.212Z,0
2018-04-25T01:32:35.947Z,0
2018-04-25T01:33:35.445Z,0
2018-04-25T01:34:35.702Z,0
2018-04-25T01:35:35.952Z,0
2018-04-25T01:36:35.699Z,0
2018-04-25T01:37:35.793Z,0
2018-04-25T01:38:35.969Z,0
2018-04-25T01:39:35.438Z,0
2018-04-25T01:40:35.732Z,0
2018-04-25T01:41:35.936Z,0
2018-04-25T01:42:35.952Z,0
2018-04-25T01:43:35.930Z,0
2018-04-25T01:44:35.439Z,0
2018-04-25T01:45:35.224Z,0
2018-04-25T01:46:35.945Z,0
2018-04-25T01:47:35.684Z,0
2018-04-25T01:48:35.682Z,0
2018-04-25T01:49:35.442Z,0
2018-04-25T01:50:35.682Z,0
2018-04-25T01:51:35.937Z,0
2018-04-25T01:52:35.423Z,0
2018-04-25T01:53:35.674Z,0
2018-04-25T01:54:35.683Z,0
2018-04-25T01:55:35.442Z,0
2018-04-25T01:56:35.676Z,0
2018-04-25T01:57:35.922Z,0
2018-04-25T01:58:35.918Z,0
2018-04-25T01:59:35.916Z,0
2018-04-25T02:00:35.978Z,0
2018-04-25T02:01:40.405Z,0
2018-04-25T02:02:35.646Z,0
2018-04-25T02:03:35.897Z,0
2018-04-25T02:04:35.398Z,0
2018-04-25T02:05:35.409Z,0
2018-04-25T02:06:35.646Z,0
2018-04-25T02:07:35.645Z,0
2018-04-25T02:08:35.650Z,0
2018-04-25T02:09:35.641Z,0
2018-04-25T02:10:35.688Z,0
2018-04-25T02:11:35.637Z,0
2018-04-25T02:12:35.888Z,0
2018-04-25T02:13:35.693Z,0
2018-04-25T02:14:35.648Z,0
2018-04-25T02:15:35.388Z,0
2018-04-25T02:16:35.375Z,0
2018-04-25T02:17:35.870Z,0
2018-04-25T02:18:35.605Z,0
2018-04-25T02:19:35.654Z,0
2018-04-25T02:20:35.662Z,0
2018-04-25T02:21:35.605Z,0
2018-04-25T02:22:35.856Z,0
2018-04-25T02:23:35.365Z,0
2018-04-25T02:24:35.853Z,0
2018-04-25T02:25:35.606Z,0
2018-04-25T02:26:35.357Z,0
2018-04-25T02:27:35.096Z,0
2018-04-25T02:28:35.857Z,0
2018-04-25T02:29:35.833Z,0
2018-04-25T02:30:35.647Z,0
2018-04-25T02:31:36.595Z,0
2018-04-25T02:32:35.593Z,0
2018-04-25T02:33:35.595Z,0
2018-04-25T02:34:35.595Z,0
2018-04-25T02:35:35.633Z,0
2018-04-25T02:36:35.346Z,0
2018-04-25T02:37:35.576Z,0
2018-04-25T02:38:35.572Z,0
2018-04-25T02:39:35.577Z,0
2018-04-25T02:40:35.578Z,0
2018-04-25T02:41:35.834Z,0
2018-04-25T02:42:35.066Z,0
2018-04-25T02:43:35.431Z,0
2018-04-25T02:44:35.827Z,0
2018-04-25T02:45:35.309Z,0
2018-04-25T02:46:35.811Z,0
2018-04-25T02:47:35.816Z,0
2018-04-25T02:48:35.554Z,0
2018-04-25T02:49:35.822Z,0
2018-04-25T02:50:35.610Z,0
2018-04-25T02:51:35.549Z,0
2018-04-25T02:52:35.543Z,0
2018-04-25T02:53:35.280Z,0
2018-04-25T02:54:35.777Z,0
2018-04-25T02:55:35.783Z,0
2018-04-25T02:56:35.772Z,0
2018-04-25T02:57:35.263Z,0
2018-04-25T02:58:35.253Z,0
2018-04-25T02:59:35.509Z,0
2018-04-25T03:00:35.547Z,0
2018-04-25T03:01:35.778Z,0
2018-04-25T03:02:38.208Z,0
2018-04-25T03:03:35.490Z,0
2018-04-25T03:04:35.503Z,0
2018-04-25T03:05:35.501Z,0
2018-04-25T03:06:35.507Z,0
2018-04-25T03:07:35.246Z,0
2018-04-25T03:08:35.729Z,0
2018-04-25T03:09:35.732Z,0
2018-04-25T03:10:35.533Z,0
2018-04-25T03:11:35.728Z,0
2018-04-25T03:12:35.723Z,0
2018-04-25T03:13:35.247Z,0
2018-04-25T03:14:35.229Z,0
2018-04-25T03:15:35.481Z,0
2018-04-25T03:16:35.475Z,0
2018-04-25T03:17:35.571Z,0
2018-04-25T03:18:35.451Z,0
2018-04-25T03:19:35.463Z,0
2018-04-25T03:20:35.538Z,0
2018-04-25T03:21:35.195Z,0
2018-04-25T03:22:36.763Z,0
2018-04-25T03:23:35.782Z,0
2018-04-25T03:24:35.782Z,0
2018-04-25T03:25:35.789Z,0
2018-04-25T03:26:35.426Z,0
2018-04-25T03:27:35.178Z,0
2018-04-25T03:28:35.681Z,0
2018-04-25T03:29:35.680Z,0
2018-04-25T03:37:38.295Z,0
2018-04-25T03:38:02.098Z,0
2018-04-25T03:39:02.374Z,0
2018-04-25T03:40:02.337Z,0
2018-04-25T03:41:02.715Z,0
2018-04-25T03:42:02.096Z,0
2018-04-25T03:43:02.588Z,0
2018-04-25T03:44:02.333Z,0
2018-04-25T03:45:02.640Z,0
2018-04-25T03:46:02.581Z,0
2018-04-25T03:47:02.070Z,0
2018-04-25T03:48:02.589Z,0
2018-04-25T03:49:02.068Z,0
2018-04-25T03:50:02.621Z,0
2018-04-25T03:51:02.572Z,0
2018-04-25T03:52:02.580Z,0
2018-04-25T03:53:02.121Z,0
2018-04-25T03:54:02.581Z,0
2018-04-25T03:55:02.560Z,0
2018-04-25T03:56:02.298Z,0
2018-04-25T03:57:02.057Z,0
2018-04-25T03:58:02.556Z,0
2018-04-25T03:59:02.648Z,0
2018-04-25T04:00:02.299Z,0
2018-04-25T04:01:02.292Z,0
2018-04-25T04:02:02.551Z,0
2018-04-25T04:03:02.285Z,0
2018-04-25T04:04:02.279Z,0
2018-04-25T04:05:02.273Z,0
2018-04-25T04:06:02.276Z,0
2018-04-25T04:07:02.028Z,0
2018-04-25T04:08:04.320Z,5
2018-04-25T04:09:02.516Z,5
2018-04-25T04:10:02.021Z,5
2018-04-25T04:11:02.267Z,5
2018-04-25T04:12:02.256Z,5
2018-04-25T04:13:02.460Z,5
2018-04-25T04:14:02.267Z,5
2018-04-25T04:15:02.516Z,10
2018-04-25T04:16:02.003Z,10
2018-04-25T04:17:02.527Z,10
2018-04-25T04:18:02.264Z,10
2018-04-25T04:19:02.251Z,15
2018-04-25T04:20:02.006Z,15
2018-04-25T04:21:02.239Z,15
2018-04-25T04:22:02.314Z,15
2018-04-25T04:23:02.952Z,20
2018-04-25T04:24:02.236Z,20
2018-04-25T04:25:02.769Z,20
2018-04-25T04:26:02.234Z,25
2018-04-25T04:27:02.222Z,25
2018-04-25T04:28:02.229Z,25
2018-04-25T04:29:01.990Z,30
2018-04-25T04:30:02.490Z,30
2018-04-25T04:31:02.426Z,35
2018-04-25T04:32:02.463Z,35
2018-04-25T04:33:02.465Z,35
2018-04-25T04:34:02.211Z,40
2018-04-25T04:35:02.462Z,40
2018-04-25T04:36:02.461Z,40
2018-04-25T04:37:02.463Z,40
2018-04-25T04:38:04.269Z,45
2018-04-25T04:39:02.464Z,45
2018-04-25T04:40:02.469Z,50
2018-04-25T04:41:02.206Z,55
2018-04-25T04:42:02.194Z,70
2018-04-25T04:43:02.452Z,80
2018-04-25T04:44:02.462Z,85
2018-04-25T04:45:02.182Z,80
2018-04-25T04:46:02.442Z,85
2018-04-25T04:47:02.192Z,85
2018-04-25T04:48:02.641Z,90
2018-04-25T04:49:02.441Z,95
2018-04-25T04:50:01.949Z,95
2018-04-25T04:51:02.173Z,100
2018-04-25T04:52:02.418Z,100
2018-04-25T04:53:02.196Z,80
2018-04-25T04:54:02.223Z,85
2018-04-25T04:55:02.419Z,105
2018-04-25T04:56:02.166Z,105
2018-04-25T04:57:02.423Z,115
2018-04-25T04:58:02.475Z,120
2018-04-25T04:59:01.673Z,120
2018-04-25T05:00:02.446Z,105
2018-04-25T05:01:02.419Z,120
2018-04-25T05:02:02.164Z,140
2018-04-25T05:03:02.168Z,150
2018-04-25T05:04:02.420Z,155
2018-04-25T05:05:02.420Z,160
2018-04-25T05:06:02.510Z,165
2018-04-25T05:07:02.178Z,165
2018-04-25T05:08:02.440Z,170
2018-04-25T05:09:03.662Z,110
2018-04-25T05:10:02.422Z,160
2018-04-25T05:11:02.167Z,195
2018-04-25T05:12:02.238Z,195
2018-04-25T05:13:02.436Z,195
2018-04-25T05:14:02.445Z,190
2018-04-25T05:15:02.415Z,190
2018-04-25T05:16:01.967Z,190
2018-04-25T05:17:02.163Z,190
2018-04-25T05:18:02.170Z,195
2018-04-25T05:19:02.166Z,180
2018-04-25T05:20:02.421Z,170
2018-04-25T05:21:01.686Z,170
2018-04-25T05:22:02.187Z,165
2018-04-25T05:23:02.514Z,165
2018-04-25T05:24:02.474Z,160
2018-04-25T05:25:02.174Z,165
2018-04-25T05:26:01.934Z,160
2018-04-25T05:27:02.183Z,155
2018-04-25T05:28:02.428Z,150
2018-04-25T05:29:02.438Z,140
2018-04-25T05:30:02.435Z,140
2018-04-25T05:31:02.419Z,140
2018-04-25T05:32:02.481Z,140
2018-04-25T05:33:02.440Z,145
2018-04-25T05:34:01.943Z,140
2018-04-25T05:35:02.455Z,140
2018-04-25T05:36:02.449Z,130
2018-04-25T05:37:02.211Z,130
2018-04-25T05:38:02.200Z,125
2018-04-25T05:39:05.458Z,135
2018-04-25T05:40:02.188Z,135
2018-04-25T05:41:02.433Z,145
2018-04-25T05:42:02.214Z,145
2018-04-25T05:43:02.476Z,145
2018-04-25T05:44:02.638Z,145
2018-04-25T05:45:02.449Z,140
2018-04-25T05:46:02.792Z,150
2018-04-25T05:47:02.199Z,150
2018-04-25T05:48:02.211Z,155
2018-04-25T05:49:02.215Z,150
2018-04-25T05:50:01.696Z,155
2018-04-25T05:51:01.951Z,155
2018-04-25T05:52:02.359Z,150
2018-04-25T05:53:01.979Z,275
2018-04-25T05:54:02.461Z,275
2018-04-25T05:55:02.508Z,275
2018-04-25T05:56:02.446Z,295
2018-04-25T05:57:02.485Z,300
2018-04-25T05:58:02.572Z,300
2018-04-25T05:59:02.200Z,300
2018-04-25T06:00:01.956Z,305
2018-04-25T06:01:01.950Z,295
2018-04-25T06:02:02.215Z,295
2018-04-25T06:03:02.235Z,285
2018-04-25T06:04:02.461Z,295
2018-04-25T06:05:02.208Z,295
2018-04-25T06:06:01.973Z,265
2018-04-25T06:07:02.470Z,285
2018-04-25T06:08:02.489Z,280
2018-04-25T06:09:02.225Z,285
2018-04-25T06:10:04.689Z,280
2018-04-25T06:11:02.269Z,145
2018-04-25T06:12:02.237Z,145
2018-04-25T06:13:02.232Z,270
2018-04-25T06:22:54.662Z,330
2018-04-25T06:23:55.151Z,340
2018-04-25T06:24:55.147Z,340
2018-04-25T06:25:55.205Z,340
2018-04-25T06:26:55.172Z,340
2018-04-25T06:27:55.231Z,340
2018-04-25T06:28:54.671Z,345
2018-04-25T06:29:55.416Z,345
2018-04-25T06:30:55.178Z,340
2018-04-25T06:31:54.954Z,345
2018-04-25T06:32:55.438Z,345
2018-04-25T06:33:55.436Z,345
2018-04-25T06:34:55.188Z,350
2018-04-25T06:35:54.966Z,330
2018-04-25T06:36:54.952Z,330
2018-04-25T06:37:55.224Z,315
2018-04-25T06:38:55.466Z,300
2018-04-25T06:39:55.219Z,330
2018-04-25T06:40:55.479Z,315
2018-04-25T06:41:55.245Z,310
2018-04-25T06:42:56.598Z,310
2018-04-25T06:43:55.490Z,280
2018-04-25T06:44:55.526Z,320
2018-04-25T06:45:54.998Z,335
2018-04-25T06:46:55.528Z,350
2018-04-25T06:47:55.594Z,310
2018-04-25T06:48:54.773Z,335
2018-04-25T06:49:55.031Z,340
2018-04-25T06:50:55.143Z,335
2018-04-25T06:51:55.034Z,325
2018-04-25T06:52:55.040Z,315
2018-04-25T06:53:54.803Z,315
2018-04-25T06:54:55.579Z,305
2018-04-25T06:55:55.348Z,300
2018-04-25T06:56:55.793Z,305
2018-04-25T06:57:55.377Z,300
2018-04-25T06:58:55.592Z,315
2018-04-25T06:59:55.345Z,305
2018-04-25T07:00:55.360Z,275
2018-04-25T07:01:55.362Z,280
2018-04-25T07:02:55.403Z,345
2018-04-25T07:03:55.418Z,345
2018-04-25T07:04:55.124Z,215
2018-04-25T07:05:55.126Z,340
2018-04-25T07:06:55.135Z,365
2018-04-25T07:07:55.915Z,360
2018-04-25T07:08:55.151Z,370
2018-04-25T07:09:55.660Z,355
2018-04-25T07:10:55.421Z,345
2018-04-25T07:11:55.669Z,340
2018-04-25T07:13:01.183Z,245
2018-04-25T07:13:55.441Z,275
2018-04-25T07:14:55.438Z,375
2018-04-25T07:15:55.203Z,360
2018-04-25T07:16:55.442Z,350
2018-04-25T07:17:55.213Z,325
2018-04-25T07:18:55.728Z,320
2018-04-25T07:19:55.467Z,355
2018-04-25T07:20:55.235Z,350
2018-04-25T07:21:55.739Z,300
2018-04-25T07:22:55.245Z,320
2018-04-25T07:23:56.165Z,380
2018-04-25T07:24:55.756Z,380
2018-04-25T07:25:55.773Z,355
2018-04-25T07:26:55.278Z,320
2018-04-25T07:27:55.595Z,315
2018-04-25T07:28:55.823Z,350
2018-04-25T07:29:55.057Z,320
2018-04-25T07:30:55.549Z,295
2018-04-25T07:31:55.817Z,290
2018-04-25T07:32:55.932Z,280
2018-04-25T07:33:55.584Z,285
2018-04-25T07:34:55.851Z,300
2018-04-25T07:35:55.356Z,320
2018-04-25T07:36:55.857Z,300
2018-04-25T07:37:55.911Z,290
2018-04-25T07:38:55.858Z,275
2018-04-25T07:39:55.862Z,310
2018-04-25T07:40:55.885Z,330
2018-04-25T07:41:56.121Z,310
2018-04-25T07:42:58.912Z,340
2018-04-25T07:43:55.387Z,350
2018-04-25T07:44:55.659Z,360
2018-04-25T07:45:55.665Z,335
2018-04-25T07:46:55.737Z,335
2018-04-25T07:47:55.247Z,345
2018-04-25T07:48:55.442Z,345
2018-04-25T07:49:55.692Z,355
2018-04-25T07:50:55.684Z,360
2018-04-25T07:51:55.443Z,355
2018-04-25T07:52:55.949Z,335
2018-04-25T07:53:55.978Z,350
2018-04-25T07:54:55.463Z,375
2018-04-25T07:55:55.977Z,380
2018-04-25T07:56:55.743Z,370
2018-04-25T07:57:55.929Z,370
2018-04-25T07:58:56.063Z,380
2018-04-25T07:59:56.015Z,380
2018-04-25T08:00:55.528Z,385
2018-04-25T08:01:55.758Z,390
2018-04-25T08:02:55.770Z,400
2018-04-25T08:03:55.590Z,395
2018-04-25T08:04:56.058Z,395
2018-04-25T08:05:55.607Z,400
2018-04-25T08:06:56.061Z,395
2018-04-25T08:07:56.069Z,390
2018-04-25T08:08:55.821Z,390
2018-04-25T08:09:55.823Z,390
2018-04-25T08:10:55.847Z,390
2018-04-25T08:11:56.123Z,405
2018-04-25T08:12:56.118Z,405
2018-04-25T08:13:56.409Z,410
2018-04-25T08:14:56.133Z,400
2018-04-25T08:15:55.399Z,410
2018-04-25T08:16:56.145Z,400
2018-04-25T08:17:56.363Z,395
2018-04-25T08:18:55.686Z,400
2018-04-25T08:19:55.902Z,410
2018-04-25T08:20:55.933Z,235
2018-04-25T08:21:56.173Z,400
2018-04-25T08:22:55.940Z,405
2018-04-25T08:23:56.192Z,395
2018-04-25T08:24:56.052Z,350
2018-04-25T08:25:56.260Z,400
2018-04-25T08:26:55.980Z,390
2018-04-25T08:27:55.995Z,375
2018-04-25T08:28:55.779Z,375
2018-04-25T08:29:56.010Z,385
2018-04-25T08:30:56.292Z,400
2018-04-25T08:31:55.766Z,355
2018-04-25T08:32:56.031Z,360
2018-04-25T08:33:55.783Z,400
2018-04-25T08:34:56.031Z,265
2018-04-25T08:35:56.040Z,400
2018-04-25T08:36:56.047Z,390
2018-04-25T08:37:56.065Z,405
2018-04-25T08:38:56.074Z,345
2018-04-25T08:39:56.087Z,390
2018-04-25T08:40:56.339Z,385
2018-04-25T08:41:56.090Z,360
2018-04-25T08:42:56.111Z,215
2018-04-25T08:43:56.561Z,330
2018-04-25T08:44:56.648Z,360
2018-04-25T08:45:56.360Z,330
2018-04-25T08:46:56.168Z,240
2018-04-25T08:47:56.382Z,360
2018-04-25T08:48:56.377Z,330
2018-04-25T08:49:56.396Z,215
2018-04-25T08:50:56.400Z,330
2018-04-25T08:51:56.154Z,220
2018-04-25T08:52:56.557Z,230
2018-04-25T08:53:56.417Z,360
2018-04-25T08:54:56.168Z,285
2018-04-25T08:55:56.183Z,380
2018-04-25T08:56:56.425Z,370
2018-04-25T08:57:56.433Z,375
2018-04-25T08:58:56.743Z,360
2018-04-25T08:59:56.203Z,260
2018-04-25T09:00:55.951Z,215
2018-04-25T09:01:56.462Z,225
2018-04-25T09:02:56.489Z,340
2018-04-25T09:03:56.237Z,350
2018-04-25T09:04:56.311Z,360
2018-04-25T09:05:56.933Z,350
2018-04-25T09:06:56.235Z,230
2018-04-25T09:07:56.492Z,350
2018-04-25T09:08:56.004Z,350
2018-04-25T09:09:56.266Z,350
2018-04-25T09:10:56.255Z,230
2018-04-25T09:11:56.511Z,350
2018-04-25T09:12:56.271Z,365
2018-04-25T09:13:57.380Z,360
2018-04-25T09:14:56.536Z,355
2018-04-25T09:15:56.543Z,310
2018-04-25T09:16:56.548Z,340
2018-04-25T09:17:56.315Z,250
2018-04-25T09:18:56.546Z,360
2018-04-25T09:19:56.051Z,340
2018-04-25T09:20:56.071Z,320
2018-04-25T09:21:56.308Z,300
2018-04-25T09:22:56.318Z,275
2018-04-25T09:23:56.571Z,285
2018-04-25T09:24:56.324Z,340
2018-04-25T09:25:56.577Z,250
2018-04-25T09:26:56.338Z,355
2018-04-25T09:27:56.336Z,230
2018-04-25T09:28:56.385Z,355
2018-04-25T09:29:56.345Z,215
2018-04-25T09:30:56.358Z,340
2018-04-25T09:31:56.616Z,210
2018-04-25T09:32:56.362Z,220
2018-04-25T09:33:56.612Z,220
2018-04-25T09:34:56.374Z,225
2018-04-25T09:35:56.626Z,300
2018-04-25T09:36:56.171Z,225
2018-04-25T09:37:56.381Z,340
2018-04-25T09:38:56.388Z,235
2018-04-25T09:39:56.389Z,370
2018-04-25T09:40:56.404Z,305
2018-04-25T09:41:56.681Z,370
2018-04-25T09:42:56.751Z,360
2018-04-25T09:43:56.227Z,365
2018-04-25T09:44:56.473Z,365
2018-04-25T09:45:56.963Z,380
2018-04-25T09:46:56.430Z,370
2018-04-25T09:47:56.673Z,370
2018-04-25T09:48:55.946Z,375
2018-04-25T09:49:56.692Z,370
2018-04-25T09:50:55.934Z,375
2018-04-25T09:51:57.053Z,370
2018-04-25T09:52:56.714Z,355
2018-04-25T09:53:56.466Z,335
2018-04-25T09:54:56.468Z,340
2018-04-25T09:55:56.805Z,335
2018-04-25T09:56:56.230Z,335
2018-04-25T09:57:56.965Z,325
2018-04-25T09:58:56.287Z,325
2018-04-25T09:59:56.512Z,315
2018-04-25T10:00:56.749Z,325
2018-04-25T10:01:56.509Z,315
2018-04-25T10:02:56.752Z,210
2018-04-25T10:03:56.639Z,300
2018-04-25T10:04:56.769Z,310
2018-04-25T10:05:56.758Z,310
2018-04-25T10:06:56.515Z,300
2018-04-25T10:07:56.527Z,305
2018-04-25T10:08:56.781Z,295
2018-04-25T10:09:56.569Z,305
2018-04-25T10:10:56.637Z,280
2018-04-25T10:11:56.816Z,210
2018-04-25T10:12:56.540Z,265
2018-04-25T10:13:58.372Z,230
2018-04-25T10:14:56.819Z,205
2018-04-25T10:15:56.826Z,205
2018-04-25T10:16:56.577Z,230
2018-04-25T10:17:56.347Z,275
2018-04-25T10:18:56.575Z,280
2018-04-25T10:19:56.979Z,280
2018-04-25T10:20:56.877Z,210
2018-04-25T10:21:56.868Z,285
2018-04-25T10:52:49.400Z,300
2018-04-25T10:53:45.644Z,290
2018-04-25T10:54:45.888Z,300
2018-04-25T10:55:45.658Z,330
2018-04-25T10:56:45.909Z,285
2018-04-25T10:57:45.897Z,350
2018-04-25T10:58:45.661Z,355
2018-04-25T10:59:45.400Z,280
2018-04-25T11:00:45.904Z,275
2018-04-25T11:01:46.012Z,260
2018-04-25T11:02:45.663Z,335
2018-04-25T11:03:45.672Z,250
2018-04-25T11:04:45.699Z,240
2018-04-25T11:05:45.929Z,230
2018-04-25T11:06:45.685Z,225
2018-04-25T11:07:45.984Z,220
2018-04-25T11:08:45.954Z,210
2018-04-25T11:09:46.199Z,205
2018-04-25T11:10:45.961Z,195
2018-04-25T11:11:45.958Z,205
2018-04-25T11:12:46.203Z,225
2018-04-25T11:13:45.211Z,230
2018-04-25T11:14:45.963Z,235
2018-04-25T11:15:45.805Z,220
2018-04-25T11:16:45.721Z,225
2018-04-25T11:17:45.504Z,220
2018-04-25T11:18:45.730Z,200
2018-04-25T11:19:45.986Z,205
2018-04-25T11:20:46.233Z,220
2018-04-25T11:21:45.736Z,240
2018-04-25T11:22:46.321Z,270
2018-04-25T11:23:46.017Z,310
2018-04-25T11:24:46.271Z,300
2018-04-25T11:25:45.764Z,245
2018-04-25T11:26:45.643Z,275
2018-04-25T11:27:46.024Z,280
2018-04-25T11:28:46.023Z,255
2018-04-25T11:29:45.777Z,195
2018-04-25T11:30:46.105Z,190
2018-04-25T11:31:46.356Z,270
2018-04-25T11:32:45.800Z,285
2018-04-25T11:33:45.552Z,240
2018-04-25T11:34:46.052Z,230
2018-04-25T11:35:46.052Z,245
2018-04-25T11:36:46.060Z,260
2018-04-25T11:37:46.367Z,260
2018-04-25T11:38:46.063Z,335
2018-04-25T11:39:45.822Z,305
2018-04-25T11:40:46.152Z,285
2018-04-25T11:41:46.097Z,300
2018-04-25T11:42:46.080Z,305
2018-04-25T11:43:46.098Z,290
2018-04-25T11:44:46.337Z,265
2018-04-25T11:45:46.102Z,270
2018-04-25T11:46:46.342Z,310
2018-04-25T11:47:45.855Z,300
2018-04-25T11:48:46.349Z,280
2018-04-25T11:49:46.108Z,275
2018-04-25T11:50:46.127Z,245
2018-04-25T11:51:46.125Z,240
2018-04-25T11:52:46.870Z,245
2018-04-25T11:53:45.621Z,235
2018-04-25T11:54:45.628Z,220
2018-04-25T11:55:46.396Z,210
2018-04-25T11:56:46.392Z,210
2018-04-25T11:57:46.139Z,265
2018-04-25T11:58:46.146Z,280
2018-04-25T11:59:46.612Z,285
2018-04-25T12:00:45.948Z,250
2018-04-25T12:01:46.165Z,220
2018-04-25T12:02:46.493Z,225
2018-04-25T12:03:46.170Z,225
2018-04-25T12:04:46.170Z,230
2018-04-25T12:05:46.420Z,240
2018-04-25T12:06:46.440Z,255
2018-04-25T12:07:46.198Z,280
2018-04-25T12:08:46.438Z,315
2018-04-25T12:09:46.191Z,290
2018-04-25T12:10:46.207Z,275
2018-04-25T12:11:45.954Z,260
2018-04-25T12:12:46.210Z,265
2018-04-25T12:13:46.471Z,285
2018-04-25T12:14:45.725Z,300
2018-04-25T12:15:46.022Z,295
2018-04-25T12:16:46.486Z,275
2018-04-25T12:17:45.992Z,255
2018-04-25T12:18:45.941Z,245
2018-04-25T12:19:46.341Z,230
2018-04-25T12:20:45.993Z,235
2018-04-25T12:21:46.496Z,240
2018-04-25T12:22:46.507Z,230
2018-04-25T12:23:48.360Z,215
2018-04-25T12:24:46.515Z,220
2018-04-25T12:25:45.771Z,235
2018-04-25T12:26:46.032Z,235
2018-04-25T12:27:46.265Z,240
2018-04-25T12:28:46.821Z,220
2018-04-25T12:29:46.492Z,210
2018-04-25T12:30:46.275Z,205
2018-04-25T12:31:46.281Z,210
2018-04-25T12:32:46.293Z,205
2018-04-25T12:33:45.785Z,200
2018-04-25T12:34:46.562Z,210
2018-04-25T12:35:46.397Z,205
2018-04-25T12:36:46.315Z,245
2018-04-25T12:37:46.564Z,245
2018-04-25T12:38:46.064Z,250
2018-04-25T12:39:46.064Z,245
2018-04-25T12:40:46.308Z,260
2018-04-25T12:41:46.108Z,255
2018-04-25T12:42:46.077Z,245
2018-04-25T12:43:46.091Z,240
2018-04-25T12:44:45.584Z,240
2018-04-25T12:45:46.362Z,235
2018-04-25T12:46:46.596Z,235
2018-04-25T12:47:46.358Z,235
2018-04-25T12:48:46.359Z,230
2018-04-25T12:49:46.095Z,230
2018-04-25T12:50:46.361Z,230
2018-04-25T12:51:46.375Z,230
2018-04-25T12:52:45.860Z,230
2018-04-25T12:53:48.528Z,235
2018-04-25T12:54:46.630Z,240
2018-04-25T12:55:46.421Z,240
2018-04-25T12:56:46.383Z,215
2018-04-25T12:57:46.390Z,235
2018-04-25T12:58:46.640Z,215
2018-04-25T12:59:46.644Z,205
2018-04-25T13:00:45.917Z,245
2018-04-25T13:01:45.701Z,220
2018-04-25T13:02:45.909Z,245
2018-04-25T13:03:46.402Z,240
2018-04-25T13:04:46.662Z,255
2018-04-25T13:05:46.434Z,245
2018-04-25T13:06:46.668Z,265
2018-04-25T13:07:46.664Z,270
2018-04-25T13:08:45.924Z,230
2018-04-25T13:09:46.684Z,210
2018-04-25T13:10:46.425Z,205
2018-04-25T13:11:46.681Z,200
2018-04-25T13:12:46.200Z,215
2018-04-25T13:13:46.709Z,230
2018-04-25T13:14:46.689Z,260
2018-04-25T13:15:46.466Z,265
2018-04-25T13:16:46.726Z,260
2018-04-25T13:17:46.724Z,250
2018-04-25T13:18:46.473Z,250
2018-04-25T13:19:46.493Z,265
2018-04-25T13:20:46.481Z,240
2018-04-25T13:21:46.726Z,250
2018-04-25T13:22:46.480Z,245
2018-04-25T13:23:47.833Z,255
2018-04-25T13:24:46.482Z,260
2018-04-25T13:25:45.998Z,255
2018-04-25T13:26:46.761Z,250
2018-04-25T13:27:46.501Z,245
2018-04-25T13:28:46.256Z,225
2018-04-25T13:29:46.512Z,230
2018-04-25T13:30:46.506Z,235
2018-04-25T13:31:46.254Z,225
2018-04-25T13:32:46.524Z,220
2018-04-25T13:33:46.028Z,225
2018-04-25T13:34:46.524Z,225
2018-04-25T13:35:46.531Z,265
2018-04-25T13:36:46.046Z,260
2018-04-25T13:37:46.463Z,270
2018-04-25T13:38:46.291Z,260
2018-04-25T13:39:46.045Z,260
2018-04-25T13:40:46.303Z,265
2018-04-25T13:41:46.304Z,250
2018-04-25T13:42:46.047Z,245
2018-04-25T13:43:46.301Z,245
2018-04-25T13:44:46.564Z,250
2018-04-25T13:45:46.605Z,235
2018-04-25T13:46:46.747Z,265
2018-04-25T13:47:46.570Z,255
2018-04-25T13:48:46.832Z,255
2018-04-25T13:49:46.575Z,250
2018-04-25T13:50:46.579Z,245
2018-04-25T13:51:46.581Z,250
2018-04-25T13:52:47.103Z,255
2018-04-25T13:53:46.845Z,245
2018-04-25T13:54:46.595Z,245
2018-04-25T13:55:46.590Z,245
2018-04-25T13:56:46.857Z,240
2018-04-25T13:57:46.612Z,200
2018-04-25T13:58:46.850Z,245
2018-04-25T13:59:46.106Z,255
2018-04-25T14:00:46.732Z,245
2018-04-25T14:01:46.378Z,240
2018-04-25T14:02:46.905Z,245
2018-04-25T14:03:46.372Z,245
2018-04-25T14:04:46.883Z,240
2018-04-25T14:05:46.903Z,220
2018-04-25T14:06:46.634Z,260
2018-04-25T14:07:46.403Z,265
2018-04-25T14:08:46.639Z,230
2018-04-25T14:09:46.871Z,250
2018-04-25T14:10:46.924Z,230
2018-04-25T14:11:46.672Z,245
2018-04-25T14:12:46.927Z,235
2018-04-25T14:13:46.929Z,255
2018-04-25T14:14:46.683Z,275
2018-04-25T14:15:46.663Z,290
2018-04-25T14:16:46.427Z,245
2018-04-25T14:17:46.938Z,250
2018-04-25T14:18:46.930Z,270
2018-04-25T14:19:46.329Z,240
2018-04-25T14:20:46.472Z,250
2018-04-25T14:21:46.687Z,240
2018-04-25T14:22:46.959Z,230
2018-04-25T14:23:46.206Z,225
2018-04-25T14:24:46.596Z,235
2018-04-25T14:25:46.694Z,235
2018-04-25T14:26:46.961Z,220
2018-04-25T14:27:46.973Z,225
2018-04-25T14:28:47.059Z,230
2018-04-25T14:29:46.968Z,235
2018-04-25T14:30:46.210Z,250
2018-04-25T14:31:46.968Z,240
2018-04-25T14:32:46.714Z,220
2018-04-25T14:33:46.469Z,215
2018-04-25T14:34:46.733Z,215
2018-04-25T14:35:46.532Z,220
2018-04-25T14:36:46.749Z,255
2018-04-25T14:37:46.561Z,230
2018-04-25T14:38:46.993Z,215
2018-04-25T14:39:49.963Z,205
2018-04-25T14:40:46.508Z,200
2018-04-25T14:41:46.762Z,205
2018-04-25T14:42:47.009Z,195
2018-04-25T14:43:46.505Z,190
2018-04-25T14:44:47.013Z,185
2018-04-25T14:45:47.006Z,190
2018-04-25T14:46:46.277Z,205
2018-04-25T14:47:46.864Z,215
2018-04-25T14:48:47.097Z,255
2018-04-25T14:49:47.032Z,230